Cuba, MO (65453)

9:45 PM CDT on July 02, 2015 (GMT -0500)
Cuba | | Change Station
CLOSE
Current Station
Personal Weather Station
Location: Cuba, MO
Elevation: 1040 ft
Nearby Weather Stations

Elev 1040 ft 38.06 °N, 91.40 °W | Updated 5 minutes ago

Overcast
Overcast
70.3 °F
Feels Like 70.3 °F
N
0.0
Wind Variable Wind from NNE

Today
High -- | Low -- °F
--% Chance of Precip.
Yesterday
High -- | Low -- °F
Precip. -- in
5:46 AM 8:32 PM
Full, 99% visible
Pressure 29.86 in
Visibility 7.0 miles
Clouds Overcast 1800 ft
Dew Point 67 °F
Humidity 88%
Rainfall 0.00 in
Snow Depth Not available.
UV 0 out of 12
Pollen .60 out of 12
Air Quality Not available.
Flu Activity Not available.
METAR KVIH 030153Z AUTO 02005KT 7SM OVC018 21/19 A2988 RMK AO2 SLP109 T02110194

More Conditions Fewer Conditions

Pressure 29.86 in
Visibility 7.0 miles
Clouds Overcast 1800 ft
Dew Point 67 °F
Humidity 88%
Rainfall 0.00 in
Snow Depth Not available.
UV 0 out of 12
Pollen .60 out of 12
Air Quality Not available.
Flu Activity Not available.
METAR KVIH 030153Z AUTO 02005KT 7SM OVC018 21/19 A2988 RMK AO2 SLP109 T02110194

More Conditions Fewer Conditions

10-Day Weather Forecast

×

Almanac

Astronomy

Jul. 02, 2015 Rise Set
Actual Time
Civil Twilight
Nautical Twilight
Astronomical Twilight
Moon
Length of Visible Light
Length of Day
Tomorrow will be .
, % of the Moon is Illuminated

Today's Extremes

State Highs State Lows

Community

WunderPhotos

Upload Photos

1,834,594 photos uploaded!

WunderBlogs® & News

Nearby

Air Quality

  Air Quality AQ Index Pollutant
Not available.

Snow Depth

Station Depth Elevation

Earthquake Activity

City Distance Mag. Time & Date
Minimum magnitude displayed is 2.5.

Coastal Water Temperatures

Place Temperature

Stations

Nearby Weather Stations

Station Location Temp. Windchill Dew Point Humidity Wind Precip. Elev Updated Type